Terminal Aerodrome Forecast
Issued by NWS Lake Charles, LA

Home | Current Version | Previous Version | Text Only | Print | Product List | Glossary On
Versions: 1 2 3 4 5 6 7 8 9 10 11 12 13 14 15 16 17 18 19
000
FTUS44 KLCH 252127 AAB
TAFLFT
TAF AMD
KLFT 252127Z 2521/2618 21009KT P6SM FEW020 BKN180
     FM260600 24006KT 5SM BR SCT004 SCT013
     FM260900 VRB03KT 3/4SM BR VV002
     FM261300 VRB03KT 3SM BR BKN170
     FM261400 18004KT P6SM BKN150=

USA.gov is the U.S. government's official web portal to all federal, state and local government web resources and services.